T/t Next Chapter — KDL9487 — position and weather

sailwx.info

Track history (hours):
 
Tides and Currents Weather Stations Pressure Air Temp Water Temp Dewpoint Dewpoint Depression Visibility Wind Speed Wind Dir Waves Ship Positions

T/t Next Chapter

Last reported at 2017-Nov-18 19:31 UTC. Time now 2017-Nov-22 16:39 UTC.
Position N 25°47' W 080°11'.

Type: High speed craft. MMSI: 338242537.

Date/timePositionNaut miles runAvg speedWind from/ knotsBaromVisibWave heightAir tempDewpointWater temp
2017-Nov-18 19:31N 25°47' W 080°11'0 0.9
2017-Nov-18 19:30N 25°47' W 080°11'3 4.7
2017-Nov-18 18:58N 25°46' W 080°08'1 2.4
2017-Nov-18 18:29N 25°46' W 080°10'  
2017-Nov-12 21:20N 25°47' W 080°11'0 0.0
2017-Nov-12 21:00N 25°47' W 080°11'0 0.0
2017-Nov-12 20:27N 25°47' W 080°11'0 0.0
2017-Nov-12 20:00N 25°47' W 080°11'0 0.0
2017-Nov-12 19:30N 25°47' W 080°11'0 0.0
2017-Nov-12 19:00N 25°47' W 080°11'0 0.0
2017-Nov-12 18:20N 25°47' W 080°11'0 0.0
2017-Nov-12 17:59N 25°47' W 080°11'0 0.0
2017-Nov-12 17:26N 25°47' W 080°11'0 0.0
2017-Nov-12 16:59N 25°47' W 080°11'0 0.0
2017-Nov-12 16:29N 25°47' W 080°11'0 0.0
2017-Nov-12 15:53N 25°47' W 080°11'0 0.0
2017-Nov-12 15:26N 25°47' W 080°11'0 0.0
2017-Nov-12 14:59N 25°47' W 080°11'0 0.0
2017-Nov-12 14:23N 25°47' W 080°11'0 0.0
2017-Nov-12 13:59N 25°47' W 080°11'0 0.0
2017-Nov-12 13:30N 25°47' W 080°11'0 0.0
2017-Nov-12 12:53N 25°47' W 080°11'0 0.0
2017-Nov-12 12:23N 25°47' W 080°11'0 0.0
2017-Nov-12 11:59N 25°47' W 080°11'0 0.0
2017-Nov-12 11:30N 25°47' W 080°11'0 0.0
2017-Nov-12 10:59N 25°47' W 080°11'0 0.0
2017-Nov-12 10:30N 25°47' W 080°11'0 0.0
2017-Nov-12 10:00N 25°47' W 080°11'0 0.0
2017-Nov-12 09:30N 25°47' W 080°11'0 0.0
2017-Nov-12 09:00N 25°47' W 080°11'0 0.0
2017-Nov-12 08:30N 25°47' W 080°11'0 0.0
2017-Nov-12 08:00N 25°47' W 080°11'0 0.0
2017-Nov-12 07:30N 25°47' W 080°11'0 0.0
2017-Nov-12 07:00N 25°47' W 080°11'0 0.0
2017-Nov-12 06:24N 25°47' W 080°11'0 0.0
2017-Nov-12 05:58N 25°47' W 080°11'0 0.0
2017-Nov-12 05:29N 25°47' W 080°11'0 0.0
2017-Nov-12 04:57N 25°47' W 080°11'0 0.0
2017-Nov-12 04:30N 25°47' W 080°11'0 0.0
2017-Nov-12 03:59N 25°47' W 080°11'0 0.0
2017-Nov-12 03:29N 25°47' W 080°11'0 0.0
2017-Nov-12 02:59N 25°47' W 080°11'0 0.0
2017-Nov-12 02:29N 25°47' W 080°11'0 0.0
2017-Nov-10 18:50N 25°47' W 080°11'2 6.1
2017-Nov-10 18:30N 25°46' W 080°09'1427.3
2017-Nov-10 18:00N 25°50' W 079°55'5 7.6
2017-Nov-10 17:23N 25°51' W 079°49'1 1.8
2017-Nov-10 17:00N 25°50' W 079°49'1 0.9
2017-Nov-10 16:07N 25°51' W 079°50'0 1.7
2017-Nov-10 15:58N 25°51' W 079°50'3 5.6
2017-Nov-10 15:27N 25°48' W 079°50'2 5.4
2017-Nov-10 15:00N 25°46' W 079°51'1 1.7
2017-Nov-10 14:30N 25°45' W 079°51'1 0.6
2017-Nov-10 12:26N 25°44' W 079°51'1 1.9
2017-Nov-10 11:46N 25°42' W 079°52'727.1
2017-Nov-10 11:30N 25°44' W 079°59'1020.7
2017-Nov-10 11:00N 25°46' W 080°11'1 0.1
2017-Nov-10 01:50N 25°46' W 080°11'0 0.0
2017-Nov-10 01:29N 25°46' W 080°11'0 0.0
2017-Nov-10 00:47N 25°46' W 080°11'0 0.0
2017-Nov-10 00:29N 25°46' W 080°11'0 0.0
2017-Nov-09 23:58N 25°46' W 080°11'0 0.0
2017-Nov-09 23:28N 25°46' W 080°11'0 0.0
2017-Nov-09 20:04N 25°46' W 080°11'0 0.2
2017-Nov-09 20:00N 25°46' W 080°11'0 0.1
2017-Nov-09 19:29N 25°46' W 080°11'0 0.8
2017-Nov-09 18:58N 25°46' W 080°11'4 3.5
2017-Nov-09 17:49N 25°42' W 080°11'6 0.9
2017-Nov-09 11:32N 25°38' W 080°06'127.9
2017-Nov-09 11:30N 25°38' W 080°07'5 9.3
2017-Nov-09 11:00N 25°41' W 080°11'1 0.8
2017-Nov-09 10:19N 25°42' W 080°11'0 0.0
2017-Nov-09 09:59N 25°42' W 080°11'0 0.0
2017-Nov-09 09:29N 25°42' W 080°11'0 0.0
2017-Nov-09 08:59N 25°42' W 080°11'0 0.0
2017-Nov-09 07:47N 25°42' W 080°11'0 0.0
2017-Nov-09 07:29N 25°42' W 080°11'0 0.0
2017-Nov-09 06:58N 25°42' W 080°11'0 0.0
2017-Nov-09 06:21N 25°42' W 080°11'0 0.0
2017-Nov-09 05:48N 25°42' W 080°11'0 0.0
2017-Nov-09 05:26N 25°42' W 080°11'0 0.0
2017-Nov-09 05:00N 25°42' W 080°11'0 0.0
2017-Nov-09 04:28N 25°42' W 080°11'0 0.0
2017-Nov-09 03:55N 25°42' W 080°11'0 0.0
2017-Nov-09 03:28N 25°42' W 080°11'1 2.5
2017-Nov-09 02:58N 25°42' W 080°12'1 2.5
2017-Nov-09 02:28N 25°42' W 080°11'0 0.0
2017-Nov-09 01:52N 25°42' W 080°11'0 0.0
2017-Nov-09 01:19N 25°42' W 080°11'0 0.0
2017-Nov-09 00:43N 25°42' W 080°11'0 0.0
2017-Nov-09 00:25N 25°42' W 080°11'0 0.0
2017-Nov-08 23:58N 25°42' W 080°11'3 5.4
2017-Nov-08 23:30N 25°43' W 080°13'1 1.5
2017-Nov-08 22:58N 25°44' W 080°14'0 0.0
2017-Nov-08 22:28N 25°44' W 080°14'3 5.4
2017-Nov-08 21:51N 25°42' W 080°11'412.1
2017-Nov-08 21:30N 25°46' W 080°11'0 0.9
2017-Nov-08 21:00N 25°46' W 080°11'  
Track history (hours):
 
Tides and Currents Weather Stations Pressure Air Temp Water Temp Dewpoint Dewpoint Depression Visibility Wind Speed Wind Dir Waves Ship Positions

T/t Next Chapter

Last reported at 2017-Nov-18 19:31 UTC. Time now 2017-Nov-22 16:39 UTC.
Position N 25°47' W 080°11'.

Type: High speed craft. MMSI: 338242537.

Date/timePositionNaut miles runAvg speedWind from/ knotsBaromVisibWave heightAir tempDewpointWater temp
2017-Nov-18 19:31N 25°47' W 080°11'0 0.9
2017-Nov-18 19:30N 25°47' W 080°11'3 4.7
2017-Nov-18 18:58N 25°46' W 080°08'1 2.4
2017-Nov-18 18:29N 25°46' W 080°10'  
2017-Nov-12 21:20N 25°47' W 080°11'0 0.0
2017-Nov-12 21:00N 25°47' W 080°11'0 0.0
2017-Nov-12 20:27N 25°47' W 080°11'0 0.0
2017-Nov-12 20:00N 25°47' W 080°11'0 0.0
2017-Nov-12 19:30N 25°47' W 080°11'0 0.0
2017-Nov-12 19:00N 25°47' W 080°11'0 0.0
2017-Nov-12 18:20N 25°47' W 080°11'0 0.0
2017-Nov-12 17:59N 25°47' W 080°11'0 0.0
2017-Nov-12 17:26N 25°47' W 080°11'0 0.0
2017-Nov-12 16:59N 25°47' W 080°11'0 0.0
2017-Nov-12 16:29N 25°47' W 080°11'0 0.0
2017-Nov-12 15:53N 25°47' W 080°11'0 0.0
2017-Nov-12 15:26N 25°47' W 080°11'0 0.0
2017-Nov-12 14:59N 25°47' W 080°11'0 0.0
2017-Nov-12 14:23N 25°47' W 080°11'0 0.0
2017-Nov-12 13:59N 25°47' W 080°11'0 0.0
2017-Nov-12 13:30N 25°47' W 080°11'0 0.0
2017-Nov-12 12:53N 25°47' W 080°11'0 0.0
2017-Nov-12 12:23N 25°47' W 080°11'0 0.0
2017-Nov-12 11:59N 25°47' W 080°11'0 0.0
2017-Nov-12 11:30N 25°47' W 080°11'0 0.0
2017-Nov-12 10:59N 25°47' W 080°11'0 0.0
2017-Nov-12 10:30N 25°47' W 080°11'0 0.0
2017-Nov-12 10:00N 25°47' W 080°11'0 0.0
2017-Nov-12 09:30N 25°47' W 080°11'0 0.0
2017-Nov-12 09:00N 25°47' W 080°11'0 0.0
2017-Nov-12 08:30N 25°47' W 080°11'0 0.0
2017-Nov-12 08:00N 25°47' W 080°11'0 0.0
2017-Nov-12 07:30N 25°47' W 080°11'0 0.0
2017-Nov-12 07:00N 25°47' W 080°11'0 0.0
2017-Nov-12 06:24N 25°47' W 080°11'0 0.0
2017-Nov-12 05:58N 25°47' W 080°11'0 0.0
2017-Nov-12 05:29N 25°47' W 080°11'0 0.0
2017-Nov-12 04:57N 25°47' W 080°11'0 0.0
2017-Nov-12 04:30N 25°47' W 080°11'0 0.0
2017-Nov-12 03:59N 25°47' W 080°11'0 0.0
2017-Nov-12 03:29N 25°47' W 080°11'0 0.0
2017-Nov-12 02:59N 25°47' W 080°11'0 0.0
2017-Nov-12 02:29N 25°47' W 080°11'0 0.0
2017-Nov-10 18:50N 25°47' W 080°11'2 6.1
2017-Nov-10 18:30N 25°46' W 080°09'1427.3
2017-Nov-10 18:00N 25°50' W 079°55'5 7.6
2017-Nov-10 17:23N 25°51' W 079°49'1 1.8
2017-Nov-10 17:00N 25°50' W 079°49'1 0.9
2017-Nov-10 16:07N 25°51' W 079°50'0 1.7
2017-Nov-10 15:58N 25°51' W 079°50'3 5.6
2017-Nov-10 15:27N 25°48' W 079°50'2 5.4
2017-Nov-10 15:00N 25°46' W 079°51'1 1.7
2017-Nov-10 14:30N 25°45' W 079°51'1 0.6
2017-Nov-10 12:26N 25°44' W 079°51'1 1.9
2017-Nov-10 11:46N 25°42' W 079°52'727.1
2017-Nov-10 11:30N 25°44' W 079°59'1020.7
2017-Nov-10 11:00N 25°46' W 080°11'1 0.1
2017-Nov-10 01:50N 25°46' W 080°11'0 0.0
2017-Nov-10 01:29N 25°46' W 080°11'0 0.0
2017-Nov-10 00:47N 25°46' W 080°11'0 0.0
2017-Nov-10 00:29N 25°46' W 080°11'0 0.0
2017-Nov-09 23:58N 25°46' W 080°11'0 0.0
2017-Nov-09 23:28N 25°46' W 080°11'0 0.0
2017-Nov-09 20:04N 25°46' W 080°11'0 0.2
2017-Nov-09 20:00N 25°46' W 080°11'0 0.1
2017-Nov-09 19:29N 25°46' W 080°11'0 0.8
2017-Nov-09 18:58N 25°46' W 080°11'4 3.5
2017-Nov-09 17:49N 25°42' W 080°11'6 0.9
2017-Nov-09 11:32N 25°38' W 080°06'127.9
2017-Nov-09 11:30N 25°38' W 080°07'5 9.3
2017-Nov-09 11:00N 25°41' W 080°11'1 0.8
2017-Nov-09 10:19N 25°42' W 080°11'0 0.0
2017-Nov-09 09:59N 25°42' W 080°11'0 0.0
2017-Nov-09 09:29N 25°42' W 080°11'0 0.0
2017-Nov-09 08:59N 25°42' W 080°11'0 0.0
2017-Nov-09 07:47N 25°42' W 080°11'0 0.0
2017-Nov-09 07:29N 25°42' W 080°11'0 0.0
2017-Nov-09 06:58N 25°42' W 080°11'0 0.0
2017-Nov-09 06:21N 25°42' W 080°11'0 0.0
2017-Nov-09 05:48N 25°42' W 080°11'0 0.0
2017-Nov-09 05:26N 25°42' W 080°11'0 0.0
2017-Nov-09 05:00N 25°42' W 080°11'0 0.0
2017-Nov-09 04:28N 25°42' W 080°11'0 0.0
2017-Nov-09 03:55N 25°42' W 080°11'0 0.0
2017-Nov-09 03:28N 25°42' W 080°11'1 2.5
2017-Nov-09 02:58N 25°42' W 080°12'1 2.5
2017-Nov-09 02:28N 25°42' W 080°11'0 0.0
2017-Nov-09 01:52N 25°42' W 080°11'0 0.0
2017-Nov-09 01:19N 25°42' W 080°11'0 0.0
2017-Nov-09 00:43N 25°42' W 080°11'0 0.0
2017-Nov-09 00:25N 25°42' W 080°11'0 0.0
2017-Nov-08 23:58N 25°42' W 080°11'3 5.4
2017-Nov-08 23:30N 25°43' W 080°13'1 1.5
2017-Nov-08 22:58N 25°44' W 080°14'0 0.0
2017-Nov-08 22:28N 25°44' W 080°14'3 5.4
2017-Nov-08 21:51N 25°42' W 080°11'412.1
2017-Nov-08 21:30N 25°46' W 080°11'0 0.9
2017-Nov-08 21:00N 25°46' W 080°11'  

Dump ship's entire track history